createdAt,value
2018-10-18T00:00:17.600Z,3.70
2018-10-18T00:01:17.488Z,3.10
2018-10-18T00:02:17.572Z,3.60
2018-10-18T00:03:17.509Z,3.20
2018-10-18T00:04:17.398Z,3.30
2018-10-18T00:05:17.823Z,3.00
2018-10-18T00:06:17.396Z,3.20
2018-10-18T00:07:17.377Z,3.00
2018-10-18T00:08:17.351Z,2.60
2018-10-18T00:09:17.260Z,2.30
2018-10-18T00:10:17.214Z,3.10
2018-10-18T00:11:17.419Z,3.10
2018-10-18T00:12:17.185Z,3.00
2018-10-18T00:13:17.120Z,2.90
2018-10-18T00:14:17.186Z,3.10
2018-10-18T00:15:17.063Z,2.70
2018-10-18T00:16:17.057Z,3.10
2018-10-18T00:17:16.995Z,3.00
2018-10-18T00:18:17.049Z,2.50
2018-10-18T00:19:16.958Z,3.10
2018-10-18T00:20:16.942Z,2.80
2018-10-18T00:21:17.032Z,2.50
2018-10-18T00:22:16.866Z,2.90
2018-10-18T00:23:16.935Z,3.30
2018-10-18T00:24:16.889Z,3.10
2018-10-18T00:25:16.826Z,2.60
2018-10-18T00:26:16.786Z,2.70
2018-10-18T00:27:16.779Z,3.40
2018-10-18T00:28:16.668Z,2.70
2018-10-18T00:29:16.636Z,2.50
2018-10-18T00:30:16.724Z,2.40
2018-10-18T00:31:16.580Z,2.40
2018-10-18T00:32:16.655Z,3.50
2018-10-18T00:33:16.538Z,2.70
2018-10-18T00:34:16.475Z,2.90
2018-10-18T00:35:16.489Z,2.90
2018-10-18T00:36:16.473Z,2.90
2018-10-18T00:37:16.410Z,2.90
2018-10-18T00:38:16.467Z,2.10
2018-10-18T00:39:16.332Z,2.40
2018-10-18T00:40:16.547Z,2.50
2018-10-18T00:41:16.286Z,2.40
2018-10-18T00:42:16.345Z,2.50
2018-10-18T00:43:16.570Z,2.30
2018-10-18T00:44:16.248Z,2.30
2018-10-18T00:45:16.149Z,2.90
2018-10-18T00:46:16.118Z,2.50
2018-10-18T00:47:16.083Z,2.40
2018-10-18T00:48:16.142Z,2.90
2018-10-18T00:49:16.032Z,2.70
2018-10-18T00:50:16.023Z,2.50
2018-10-18T00:51:15.963Z,2.60
2018-10-18T00:52:15.934Z,3.10
2018-10-18T00:53:15.923Z,2.90
2018-10-18T00:54:15.972Z,2.90
2018-10-18T00:55:15.867Z,2.90
2018-10-18T00:56:15.851Z,3.00
2018-10-18T00:57:15.825Z,2.30
2018-10-18T00:58:15.754Z,2.70
2018-10-18T00:59:15.873Z,2.30
2018-10-18T01:00:15.836Z,3.10
2018-10-18T01:01:15.673Z,2.80
2018-10-18T01:02:15.727Z,3.20
2018-10-18T01:03:15.627Z,2.80
2018-10-18T01:04:15.840Z,2.80
2018-10-18T01:05:15.587Z,3.40
2018-10-18T01:06:15.550Z,2.70
2018-10-18T01:07:15.478Z,3.60
2018-10-18T01:08:15.722Z,2.70
2018-10-18T01:09:15.424Z,2.90
2018-10-18T01:10:15.545Z,2.80
2018-10-18T01:11:15.360Z,2.40
2018-10-18T01:12:15.404Z,2.90
2018-10-18T01:13:48.518Z,3.00
2018-10-18T01:14:15.355Z,2.50
2018-10-18T01:15:15.227Z,3.10
2018-10-18T01:16:48.425Z,3.20
2018-10-18T01:17:15.178Z,1.70
2018-10-18T01:18:15.269Z,3.70
2018-10-18T01:19:48.335Z,3.20
2018-10-18T01:25:28.544Z,2.80
2018-10-18T01:26:28.496Z,3.00
2018-10-18T01:27:28.483Z,2.90
2018-10-18T01:28:28.449Z,2.80
2018-10-18T01:29:28.640Z,3.20
2018-10-18T01:30:28.398Z,3.40
2018-10-18T01:31:28.361Z,3.50
2018-10-18T01:32:28.328Z,3.00
2018-10-18T01:33:28.492Z,3.20
2018-10-18T01:34:29.817Z,2.50
2018-10-18T01:35:28.245Z,2.80
2018-10-18T01:36:28.234Z,2.70
2018-10-18T01:37:28.173Z,2.50
2018-10-18T01:38:28.148Z,3.50
2018-10-18T01:39:28.121Z,3.60
2018-10-18T01:40:29.194Z,2.90
2018-10-18T01:41:28.064Z,3.10
2018-10-18T01:42:28.328Z,3.00
2018-10-18T01:43:27.981Z,3.00
2018-10-18T01:44:27.948Z,3.30
2018-10-18T01:45:27.925Z,3.60
2018-10-18T01:46:27.893Z,3.40
2018-10-18T01:47:27.912Z,3.40
2018-10-18T01:48:27.837Z,3.30
2018-10-18T01:49:27.812Z,2.50
2018-10-18T01:50:27.783Z,2.80
2018-10-18T01:51:27.738Z,3.10
2018-10-18T01:52:27.722Z,2.90
2018-10-18T01:53:27.680Z,3.10
2018-10-18T01:54:27.665Z,3.30
2018-10-18T01:55:27.629Z,3.20
2018-10-18T01:56:27.596Z,2.80
2018-10-18T01:57:27.758Z,3.30
2018-10-18T01:58:27.721Z,3.40
2018-10-18T01:59:27.511Z,2.90
2018-10-18T02:00:27.473Z,3.20
2018-10-18T02:01:27.430Z,2.70
2018-10-18T02:02:27.393Z,2.90
2018-10-18T02:03:27.376Z,3.00
2018-10-18T02:04:27.342Z,2.70
2018-10-18T02:05:27.308Z,3.00
2018-10-18T02:06:27.290Z,3.40
2018-10-18T02:07:27.240Z,3.50
2018-10-18T02:08:27.224Z,3.80
2018-10-18T02:09:27.203Z,3.60
2018-10-18T02:10:27.141Z,3.70
2018-10-18T02:11:27.131Z,3.20
2018-10-18T02:12:27.097Z,3.10
2018-10-18T02:13:27.104Z,3.60
2018-10-18T02:14:27.385Z,3.00
2018-10-18T02:15:27.022Z,3.30
2018-10-18T02:16:26.966Z,3.00
2018-10-18T02:17:26.948Z,3.10
2018-10-18T02:18:26.910Z,3.20
2018-10-18T02:19:26.878Z,3.70
2018-10-18T02:20:27.048Z,3.40
2018-10-18T02:21:26.811Z,3.10
2018-10-18T02:22:26.781Z,4.00
2018-10-18T02:23:26.750Z,3.50
2018-10-18T02:24:26.723Z,3.20
2018-10-18T02:25:26.701Z,3.20
2018-10-18T02:26:26.662Z,3.60
2018-10-18T02:27:26.633Z,3.80
2018-10-18T02:28:26.606Z,3.30
2018-10-18T02:29:26.565Z,3.30
2018-10-18T02:30:26.560Z,4.10
2018-10-18T02:31:26.517Z,3.80
2018-10-18T02:32:26.474Z,2.90
2018-10-18T02:33:26.502Z,2.70
2018-10-18T02:34:26.438Z,3.90
2018-10-18T02:35:26.391Z,3.30
2018-10-18T02:36:26.363Z,3.10
2018-10-18T02:37:26.321Z,3.00
2018-10-18T02:38:26.292Z,3.30
2018-10-18T02:39:26.260Z,3.90
2018-10-18T02:40:26.240Z,3.30
2018-10-18T02:41:26.199Z,3.30
2018-10-18T02:42:26.183Z,3.70
2018-10-18T02:43:26.133Z,3.10
2018-10-18T02:44:26.101Z,3.50
2018-10-18T02:45:26.063Z,3.70
2018-10-18T02:46:26.035Z,3.60
2018-10-18T02:47:26.334Z,4.10
2018-10-18T02:48:25.997Z,3.40
2018-10-18T02:49:25.957Z,4.50
2018-10-18T02:50:25.913Z,3.50
2018-10-18T02:51:25.879Z,3.90
2018-10-18T02:52:25.847Z,3.60
2018-10-18T02:53:25.830Z,3.70
2018-10-18T02:54:25.785Z,3.10
2018-10-18T02:55:25.769Z,3.40
2018-10-18T02:56:25.723Z,4.10
2018-10-18T02:57:25.703Z,3.60
2018-10-18T02:58:25.658Z,3.70
2018-10-18T02:59:25.650Z,4.30
2018-10-18T03:00:25.620Z,3.90
2018-10-18T03:01:25.575Z,4.00
2018-10-18T03:02:25.545Z,4.30
2018-10-18T03:03:25.526Z,5.30
2018-10-18T03:04:25.484Z,4.50
2018-10-18T03:05:25.467Z,4.60
2018-10-18T03:06:25.428Z,5.50
2018-10-18T03:07:25.389Z,4.50
2018-10-18T03:08:25.357Z,5.00
2018-10-18T03:09:25.332Z,5.40
2018-10-18T03:10:25.289Z,5.10
2018-10-18T03:11:25.265Z,4.90
2018-10-18T03:12:25.229Z,4.50
2018-10-18T03:13:25.228Z,3.90
2018-10-18T03:14:25.265Z,4.50
2018-10-18T03:15:25.132Z,4.60
2018-10-18T03:16:25.112Z,3.80
2018-10-18T03:17:25.069Z,4.30
2018-10-18T03:18:25.054Z,4.10
2018-10-18T03:19:25.035Z,4.70
2018-10-18T03:20:24.976Z,4.30
2018-10-18T03:21:24.950Z,4.20
2018-10-18T03:22:24.923Z,3.80
2018-10-18T03:23:24.881Z,4.10
2018-10-18T03:24:24.854Z,3.90
2018-10-18T03:25:24.823Z,4.20
2018-10-18T03:26:24.790Z,3.40
2018-10-18T03:27:24.757Z,3.80
2018-10-18T03:28:24.739Z,4.60
2018-10-18T03:29:24.701Z,4.10
2018-10-18T03:30:24.675Z,4.80
2018-10-18T03:31:24.655Z,3.70
2018-10-18T03:32:24.614Z,4.30
2018-10-18T03:33:24.634Z,4.20
2018-10-18T03:34:24.547Z,4.10
2018-10-18T03:35:24.558Z,3.90
2018-10-18T03:36:24.514Z,4.40
2018-10-18T03:37:24.445Z,3.60
2018-10-18T03:38:24.420Z,3.80
2018-10-18T03:39:24.393Z,3.70
2018-10-18T03:40:24.381Z,4.00
2018-10-18T03:41:24.432Z,3.70
2018-10-18T03:42:24.303Z,3.90
2018-10-18T03:43:24.288Z,3.70
2018-10-18T03:44:24.234Z,4.00
2018-10-18T03:45:24.203Z,4.90
2018-10-18T03:46:24.167Z,3.90
2018-10-18T03:47:24.150Z,4.50
2018-10-18T03:48:24.112Z,4.00
2018-10-18T03:49:24.079Z,4.20
2018-10-18T03:50:24.045Z,3.80
2018-10-18T03:51:24.009Z,4.10
2018-10-18T03:52:23.985Z,4.00
2018-10-18T03:53:23.960Z,4.00
2018-10-18T03:54:23.922Z,4.00
2018-10-18T03:55:23.884Z,4.00
2018-10-18T03:56:23.865Z,3.60
2018-10-18T03:57:23.824Z,3.60
2018-10-18T03:58:23.845Z,4.80
2018-10-18T03:59:23.821Z,3.50
2018-10-18T04:00:23.733Z,4.70
2018-10-18T04:01:23.708Z,3.80
2018-10-18T04:02:23.747Z,3.20
2018-10-18T04:03:23.641Z,3.90
2018-10-18T04:04:23.605Z,3.50
2018-10-18T04:05:23.591Z,3.10
2018-10-18T04:06:23.552Z,3.60
2018-10-18T04:07:23.524Z,3.80
2018-10-18T04:08:23.678Z,3.60
2018-10-18T04:09:23.450Z,3.80
2018-10-18T04:10:23.430Z,3.40
2018-10-18T04:11:23.394Z,3.30
2018-10-18T04:12:23.489Z,3.50
2018-10-18T04:13:23.603Z,3.30
2018-10-18T04:14:23.295Z,3.40
2018-10-18T04:15:23.259Z,3.30
2018-10-18T04:16:23.235Z,3.30
2018-10-18T04:17:23.195Z,3.50
2018-10-18T04:18:23.249Z,3.40
2018-10-18T04:19:23.153Z,4.10
2018-10-18T04:20:23.106Z,3.30
2018-10-18T04:21:23.084Z,4.40
2018-10-18T04:22:23.043Z,3.70
2018-10-18T04:23:23.017Z,3.70
2018-10-18T04:24:22.978Z,3.60
2018-10-18T04:25:23.003Z,3.40
2018-10-18T04:26:22.922Z,3.50
2018-10-18T04:27:22.883Z,3.70
2018-10-18T04:28:22.852Z,3.10
2018-10-18T04:29:22.829Z,3.10
2018-10-18T04:30:22.798Z,3.80
2018-10-18T04:31:22.770Z,3.20
2018-10-18T04:32:22.734Z,3.90
2018-10-18T04:33:22.703Z,3.40
2018-10-18T04:34:22.668Z,3.10
2018-10-18T04:35:22.647Z,3.40
2018-10-18T04:36:22.602Z,3.60
2018-10-18T04:37:22.632Z,3.60
2018-10-18T04:38:22.549Z,3.20
2018-10-18T04:39:22.525Z,3.90
2018-10-18T04:40:22.481Z,3.20
2018-10-18T04:41:22.452Z,3.40
2018-10-18T04:42:22.422Z,3.10
2018-10-18T04:43:22.399Z,3.00
2018-10-18T04:44:22.361Z,3.90
2018-10-18T04:45:22.327Z,3.70
2018-10-18T04:46:22.287Z,3.90
2018-10-18T04:47:22.305Z,3.10
2018-10-18T04:48:22.328Z,3.10
2018-10-18T04:49:22.209Z,3.40
2018-10-18T04:50:22.165Z,3.30
2018-10-18T04:51:22.132Z,3.40
2018-10-18T04:52:22.103Z,3.20
2018-10-18T04:53:22.068Z,3.00
2018-10-18T04:54:22.042Z,3.50
2018-10-18T04:55:22.008Z,3.80
2018-10-18T04:56:21.978Z,3.10
2018-10-18T04:57:21.944Z,2.80
2018-10-18T04:58:21.908Z,3.20
2018-10-18T04:59:21.881Z,3.60
2018-10-18T05:00:21.847Z,2.60
2018-10-18T05:01:22.002Z,3.30
2018-10-18T05:02:21.787Z,3.20
2018-10-18T05:03:21.778Z,3.30
2018-10-18T05:04:21.720Z,3.30
2018-10-18T05:05:21.698Z,3.10
2018-10-18T05:06:21.661Z,2.90
2018-10-18T05:07:21.630Z,2.80
2018-10-18T05:08:21.613Z,2.90
2018-10-18T05:09:21.576Z,2.70
2018-10-18T05:10:21.780Z,2.70
2018-10-18T05:11:21.531Z,2.90
2018-10-18T05:12:21.520Z,3.10
2018-10-18T05:13:21.446Z,3.00
2018-10-18T05:14:21.409Z,3.30
2018-10-18T05:15:21.377Z,3.10
2018-10-18T05:16:21.347Z,3.00
2018-10-18T05:17:21.323Z,3.50
2018-10-18T05:18:21.289Z,3.00
2018-10-18T05:19:21.263Z,2.90
2018-10-18T05:20:21.227Z,2.70
2018-10-18T05:21:21.249Z,3.20
2018-10-18T05:22:21.227Z,3.10
2018-10-18T05:23:21.130Z,3.30
2018-10-18T05:24:21.101Z,3.10
2018-10-18T05:25:21.211Z,3.50
2018-10-18T05:26:21.297Z,3.70
2018-10-18T05:27:20.997Z,3.90
2018-10-18T05:28:20.975Z,3.30
2018-10-18T05:29:20.974Z,2.90
2018-10-18T05:30:20.916Z,3.30
2018-10-18T05:31:20.995Z,3.20
2018-10-18T05:32:20.847Z,3.50
2018-10-18T05:33:20.808Z,3.90
2018-10-18T05:34:20.795Z,3.30
2018-10-18T05:35:20.761Z,3.20
2018-10-18T05:36:20.713Z,3.50
2018-10-18T05:37:20.708Z,3.50
2018-10-18T05:38:20.654Z,3.10
2018-10-18T05:39:20.621Z,2.80
2018-10-18T05:40:20.590Z,3.10
2018-10-18T05:41:20.559Z,3.70
2018-10-18T05:42:20.527Z,3.70
2018-10-18T05:43:20.593Z,2.90
2018-10-18T05:44:20.467Z,3.30
2018-10-18T05:45:20.436Z,3.70
2018-10-18T05:46:20.406Z,3.20
2018-10-18T05:47:20.406Z,3.40
2018-10-18T05:48:20.345Z,3.30
2018-10-18T05:49:20.371Z,3.80
2018-10-18T05:50:20.275Z,3.90
2018-10-18T05:51:20.242Z,3.50
2018-10-18T05:52:20.224Z,3.20
2018-10-18T05:53:20.234Z,3.50
2018-10-18T05:54:20.449Z,4.00
2018-10-18T05:55:20.117Z,3.80
2018-10-18T05:56:20.159Z,3.50
2018-10-18T05:57:20.070Z,3.60
2018-10-18T05:58:20.033Z,4.40
2018-10-18T05:59:19.998Z,3.90
2018-10-18T06:00:20.002Z,4.10
2018-10-18T06:01:19.930Z,3.90
2018-10-18T06:02:19.896Z,3.40
2018-10-18T06:03:19.875Z,3.60
2018-10-18T06:04:19.839Z,4.20
2018-10-18T06:05:19.828Z,4.00
2018-10-18T06:06:19.768Z,3.70
2018-10-18T06:07:19.745Z,3.60
2018-10-18T06:08:19.708Z,4.30
2018-10-18T06:09:19.680Z,4.70
2018-10-18T06:10:19.676Z,4.00
2018-10-18T06:11:19.626Z,4.00
2018-10-18T06:12:19.582Z,3.90
2018-10-18T06:13:19.627Z,4.20
2018-10-18T06:14:19.524Z,4.30
2018-10-18T06:15:19.490Z,4.50
2018-10-18T06:16:19.453Z,4.40
2018-10-18T06:17:19.426Z,4.40
2018-10-18T06:18:19.400Z,3.90
2018-10-18T06:19:19.569Z,3.90
2018-10-18T06:20:19.330Z,3.40
2018-10-18T06:21:19.294Z,3.80
2018-10-18T06:22:19.269Z,4.80
2018-10-18T06:23:19.333Z,4.70
2018-10-18T06:24:19.203Z,4.50
2018-10-18T06:25:19.194Z,3.80
2018-10-18T06:26:19.149Z,4.40
2018-10-18T06:27:19.333Z,5.20
2018-10-18T06:28:19.078Z,4.70
2018-10-18T06:29:19.054Z,4.80
2018-10-18T06:30:19.012Z,4.20
2018-10-18T06:31:18.981Z,5.00
2018-10-18T06:32:18.954Z,4.60
2018-10-18T06:33:18.917Z,5.10
2018-10-18T06:34:18.889Z,5.00
2018-10-18T06:35:18.905Z,4.80
2018-10-18T06:36:18.835Z,4.50
2018-10-18T06:37:18.835Z,4.20
2018-10-18T06:38:18.774Z,4.80
2018-10-18T06:39:18.781Z,4.90
2018-10-18T06:40:18.705Z,4.80
2018-10-18T06:41:18.728Z,5.50
2018-10-18T06:42:18.635Z,4.50
2018-10-18T06:43:18.723Z,4.50
2018-10-18T06:44:18.777Z,4.60
2018-10-18T06:45:18.562Z,3.90
2018-10-18T06:46:18.516Z,5.60
2018-10-18T06:47:18.555Z,5.00
2018-10-18T06:48:18.445Z,4.20
2018-10-18T06:49:18.556Z,5.20
2018-10-18T06:50:18.384Z,4.40
2018-10-18T06:51:18.352Z,4.10
2018-10-18T06:52:18.351Z,4.30
2018-10-18T06:53:18.288Z,4.10
2018-10-18T06:54:18.399Z,4.80
2018-10-18T06:55:18.321Z,4.60
2018-10-18T06:56:18.202Z,4.20
2018-10-18T06:57:18.170Z,4.50
2018-10-18T06:58:18.172Z,4.40
2018-10-18T06:59:18.104Z,4.20
2018-10-18T07:00:18.291Z,4.90
2018-10-18T07:01:18.044Z,4.40
2018-10-18T07:02:18.004Z,3.80
2018-10-18T07:03:17.990Z,4.10
2018-10-18T07:04:17.941Z,4.10
2018-10-18T07:05:17.906Z,3.60
2018-10-18T07:06:18.050Z,4.00
2018-10-18T07:07:17.848Z,4.50
2018-10-18T07:08:17.811Z,4.60
2018-10-18T07:09:17.786Z,3.80
2018-10-18T07:10:17.756Z,3.90
2018-10-18T07:11:17.728Z,4.10
2018-10-18T07:12:17.784Z,3.90
2018-10-18T07:13:17.655Z,4.30
2018-10-18T07:14:17.631Z,4.10
2018-10-18T07:15:17.595Z,3.40
2018-10-18T07:16:17.618Z,4.20
2018-10-18T07:17:17.570Z,4.60
2018-10-18T07:18:17.564Z,4.70
2018-10-18T07:19:17.477Z,3.50
2018-10-18T07:20:17.452Z,3.50
2018-10-18T07:21:17.398Z,4.90
2018-10-18T07:22:17.578Z,3.50
2018-10-18T07:23:17.337Z,4.40
2018-10-18T07:24:17.404Z,4.60
2018-10-18T07:25:17.332Z,3.80
2018-10-18T07:26:17.241Z,4.70
2018-10-18T07:27:17.209Z,4.00
2018-10-18T07:28:17.190Z,4.50
2018-10-18T07:29:17.152Z,4.70
2018-10-18T07:30:17.152Z,3.90
2018-10-18T07:31:17.086Z,4.40
2018-10-18T07:32:17.065Z,3.90
2018-10-18T07:33:17.020Z,4.30
2018-10-18T07:34:17.003Z,4.10
2018-10-18T07:35:16.962Z,3.70
2018-10-18T07:36:17.032Z,4.40
2018-10-18T07:37:16.901Z,3.80
2018-10-18T07:38:16.904Z,4.00
2018-10-18T07:39:16.827Z,4.60
2018-10-18T07:40:16.809Z,5.10
2018-10-18T07:41:16.821Z,4.60
2018-10-18T07:42:16.865Z,4.40
2018-10-18T07:43:16.705Z,3.80
2018-10-18T07:44:16.671Z,4.20
2018-10-18T07:45:16.675Z,4.20
2018-10-18T07:46:16.605Z,4.80
2018-10-18T07:47:16.591Z,4.60
2018-10-18T07:48:16.637Z,4.10
2018-10-18T07:49:16.961Z,4.10
2018-10-18T07:50:16.495Z,4.40
2018-10-18T07:51:16.464Z,3.60
2018-10-18T07:52:16.415Z,4.00
2018-10-18T07:53:16.493Z,4.30
2018-10-18T07:54:16.409Z,4.70
2018-10-18T07:55:16.320Z,4.20
2018-10-18T07:56:16.289Z,4.50
2018-10-18T07:57:16.258Z,4.20
2018-10-18T07:58:16.231Z,4.80
2018-10-18T07:59:16.193Z,4.40
2018-10-18T08:00:16.377Z,4.70
2018-10-18T08:01:16.128Z,4.40
2018-10-18T08:02:16.128Z,3.70
2018-10-18T08:03:16.070Z,3.80
2018-10-18T08:04:16.049Z,4.40
2018-10-18T08:05:16.041Z,4.00
2018-10-18T08:06:15.980Z,4.20
2018-10-18T08:07:16.006Z,3.90
2018-10-18T08:08:15.907Z,4.00
2018-10-18T08:09:15.880Z,3.80
2018-10-18T08:10:15.871Z,4.30
2018-10-18T08:11:15.823Z,4.10
2018-10-18T08:12:15.792Z,3.70
2018-10-18T08:13:15.883Z,4.30
2018-10-18T08:14:15.716Z,4.00
2018-10-18T08:15:15.687Z,4.30
2018-10-18T08:16:15.666Z,3.90
2018-10-18T08:17:15.640Z,4.10
2018-10-18T08:18:15.600Z,4.50
2018-10-18T08:19:15.598Z,4.40
2018-10-18T08:20:15.535Z,4.80
2018-10-18T08:21:15.512Z,3.80
2018-10-18T08:22:15.463Z,4.50
2018-10-18T08:23:15.441Z,4.40
2018-10-18T08:24:15.414Z,4.20
2018-10-18T08:25:15.471Z,4.30
2018-10-18T08:26:15.339Z,4.50
2018-10-18T08:27:15.315Z,4.50
2018-10-18T08:28:15.284Z,4.50
2018-10-18T08:29:15.242Z,3.90
2018-10-18T08:30:15.250Z,4.20
2018-10-18T08:31:15.335Z,4.20
2018-10-18T08:32:15.151Z,4.40
2018-10-18T08:33:15.120Z,4.70
2018-10-18T08:34:15.087Z,4.10
2018-10-18T08:35:15.118Z,4.30
2018-10-18T08:37:15.115Z,3.90
2018-10-18T08:38:15.045Z,4.50
2018-10-18T08:39:14.931Z,4.30
2018-10-18T08:40:14.898Z,4.60
2018-10-18T08:41:14.873Z,4.60
2018-10-18T08:42:14.829Z,4.40
2018-10-18T08:43:14.904Z,4.70
2018-10-18T08:44:14.772Z,4.50
2018-10-18T08:45:14.726Z,4.40
2018-10-18T08:46:14.739Z,4.30
2018-10-18T08:47:14.667Z,4.60
2018-10-18T08:48:14.635Z,4.60
2018-10-18T08:49:14.631Z,4.20
2018-10-18T08:50:14.568Z,4.10
2018-10-18T08:51:14.568Z,4.00
2018-10-18T08:52:14.514Z,3.90
2018-10-18T08:53:14.475Z,4.30
2018-10-18T08:54:14.449Z,3.90
2018-10-18T08:55:14.506Z,3.90
2018-10-18T08:56:14.389Z,4.20
2018-10-18T08:57:14.556Z,4.20
2018-10-18T08:58:14.325Z,4.10
2018-10-18T08:59:14.355Z,4.30
2018-10-18T09:00:14.258Z,4.70
2018-10-18T09:01:14.298Z,3.90
2018-10-18T09:02:14.198Z,3.60
2018-10-18T09:03:14.317Z,4.40
2018-10-18T09:04:14.122Z,4.60
2018-10-18T09:05:14.098Z,4.70
2018-10-18T09:06:14.063Z,4.50
2018-10-18T09:07:14.095Z,4.80
2018-10-18T09:08:14.005Z,4.40
2018-10-18T09:09:14.073Z,4.40
2018-10-18T09:10:13.937Z,4.70
2018-10-18T09:11:13.912Z,4.10
2018-10-18T09:12:13.890Z,4.10
2018-10-18T09:13:13.903Z,4.10
2018-10-18T09:14:13.829Z,4.20
2018-10-18T09:15:13.771Z,4.90
2018-10-18T09:16:13.817Z,5.00
2018-10-18T09:17:13.798Z,4.20
2018-10-18T09:18:13.679Z,4.00
2018-10-18T09:19:13.679Z,3.90
2018-10-18T09:20:13.609Z,4.60
2018-10-18T09:21:13.589Z,4.20
2018-10-18T09:22:13.563Z,4.70
2018-10-18T09:23:13.531Z,4.00
2018-10-18T09:24:13.487Z,5.50
2018-10-18T09:25:14.066Z,4.60
2018-10-18T09:28:04.369Z,4.70
2018-10-18T09:29:04.331Z,5.60
2018-10-18T09:30:04.316Z,4.20
2018-10-18T09:31:04.510Z,4.20
2018-10-18T09:32:04.265Z,4.30
2018-10-18T09:33:04.206Z,4.00
2018-10-18T09:34:04.184Z,4.40
2018-10-18T09:35:04.140Z,3.50
2018-10-18T09:36:04.115Z,4.10
2018-10-18T09:37:04.141Z,4.10
2018-10-18T09:38:04.078Z,4.20
2018-10-18T09:39:04.076Z,4.80
2018-10-18T09:40:04.090Z,4.30
2018-10-18T09:41:03.977Z,4.00
2018-10-18T09:42:03.919Z,5.20
2018-10-18T09:43:03.936Z,3.90
2018-10-18T09:44:03.873Z,3.80
2018-10-18T09:47:50.259Z,4.10
2018-10-18T09:48:50.076Z,4.50
2018-10-18T09:49:50.051Z,4.50
2018-10-18T09:53:50.121Z,4.50
2018-10-18T09:54:49.882Z,5.00
2018-10-18T09:55:49.909Z,4.30
2018-10-18T09:56:49.821Z,4.30
2018-10-18T09:57:49.788Z,4.20
2018-10-18T09:58:49.768Z,4.40
2018-10-18T09:59:49.932Z,4.50
2018-10-18T10:00:49.699Z,3.90
2018-10-18T10:01:49.664Z,4.00
2018-10-18T10:02:49.633Z,5.00
2018-10-18T10:03:49.604Z,4.30
2018-10-18T10:04:49.599Z,3.80
2018-10-18T10:05:49.528Z,4.30
2018-10-18T10:06:49.505Z,4.10
2018-10-18T10:09:48.018Z,3.10
2018-10-18T10:10:35.448Z,2.70
2018-10-18T10:11:35.272Z,3.70
2018-10-18T10:12:35.200Z,3.70
2018-10-18T10:13:35.246Z,4.00
2018-10-18T10:14:35.121Z,3.60
2018-10-18T10:15:35.091Z,3.30
2018-10-18T10:16:35.145Z,3.60
2018-10-18T10:17:35.080Z,3.50
2018-10-18T10:18:35.003Z,3.50
2018-10-18T10:19:34.974Z,3.20
2018-10-18T10:20:34.950Z,3.50
2018-10-18T10:21:34.899Z,3.40
2018-10-18T10:22:34.884Z,3.60
2018-10-18T10:23:34.833Z,3.20
2018-10-18T10:26:34.113Z,3.10
2018-10-18T10:29:21.473Z,3.60
2018-10-18T10:32:50.796Z,2.70
2018-10-18T10:33:04.867Z,2.60
2018-10-18T10:34:04.756Z,3.70
2018-10-18T10:35:04.732Z,3.00
2018-10-18T10:36:04.679Z,3.10
2018-10-18T10:37:04.719Z,3.60
2018-10-18T10:38:04.672Z,3.00
2018-10-18T10:39:04.638Z,3.80
2018-10-18T10:40:04.567Z,3.40
2018-10-18T10:41:04.587Z,3.20
2018-10-18T10:42:04.517Z,3.40
2018-10-18T10:43:04.530Z,3.20
2018-10-18T10:44:04.498Z,3.20
2018-10-18T10:45:04.439Z,3.20
2018-10-18T10:46:04.444Z,3.30
2018-10-18T10:47:04.364Z,2.90
2018-10-18T10:48:04.380Z,3.40
2018-10-18T10:49:04.339Z,3.80
2018-10-18T10:50:04.333Z,3.70
2018-10-18T10:51:04.303Z,4.10
2018-10-18T10:52:04.184Z,3.50
2018-10-18T10:53:04.137Z,3.20
2018-10-18T10:54:04.144Z,3.60
2018-10-18T10:55:04.074Z,3.10
2018-10-18T10:56:04.133Z,3.30
2018-10-18T10:57:04.331Z,3.70
2018-10-18T10:58:04.070Z,2.90
2018-10-18T10:59:03.998Z,2.60
2018-10-18T11:00:03.969Z,2.70
2018-10-18T11:03:50.322Z,3.00
2018-10-18T11:04:50.434Z,3.00
2018-10-18T11:05:50.129Z,3.50
2018-10-18T11:06:50.092Z,2.50
2018-10-18T11:07:50.058Z,2.40
2018-10-18T11:08:50.013Z,4.60
2018-10-18T11:09:50.397Z,4.90
2018-10-18T11:10:49.952Z,5.00
2018-10-18T11:11:49.975Z,8.90
2018-10-18T11:12:49.908Z,9.70
2018-10-18T11:13:49.866Z,6.50
2018-10-18T11:14:49.824Z,6.30
2018-10-18T11:15:49.865Z,5.50
2018-10-18T11:16:49.780Z,5.50
2018-10-18T11:17:49.740Z,4.60
2018-10-18T11:18:49.715Z,5.30
2018-10-18T11:19:49.667Z,4.70
2018-10-18T11:20:49.632Z,3.90
2018-10-18T11:21:49.648Z,3.50
2018-10-18T11:22:49.574Z,3.40
2018-10-18T11:23:49.541Z,2.60
2018-10-18T11:24:49.545Z,2.90
2018-10-18T11:25:49.474Z,2.70
2018-10-18T11:26:49.591Z,3.20
2018-10-18T11:27:49.417Z,2.80
2018-10-18T11:28:49.376Z,3.40
2018-10-18T11:29:49.359Z,2.90
2018-10-18T11:30:49.429Z,2.80
2018-10-18T11:31:49.284Z,2.60
2018-10-18T11:33:49.221Z,2.80
2018-10-18T11:34:49.210Z,2.50
2018-10-18T11:35:49.171Z,2.30
2018-10-18T11:36:49.125Z,2.60
2018-10-18T11:37:49.253Z,2.80
2018-10-18T11:38:49.076Z,3.00
2018-10-18T11:39:49.054Z,2.50
2018-10-18T11:40:49.011Z,2.40
2018-10-18T11:41:48.974Z,2.20
2018-10-18T11:42:49.038Z,2.70
2018-10-18T11:43:48.912Z,2.90
2018-10-18T11:44:48.873Z,2.70
2018-10-18T11:45:48.843Z,2.50
2018-10-18T11:46:48.810Z,2.40
2018-10-18T11:47:48.775Z,2.50
2018-10-18T11:48:48.759Z,2.40
2018-10-18T11:49:48.723Z,2.30
2018-10-18T11:50:48.693Z,2.70
2018-10-18T11:51:48.770Z,2.30
2018-10-18T11:52:48.623Z,2.50
2018-10-18T11:53:48.619Z,2.60
2018-10-18T11:54:48.775Z,2.40
2018-10-18T11:55:48.550Z,2.40
2018-10-18T11:56:48.514Z,2.30
2018-10-18T11:57:48.474Z,2.20
2018-10-18T11:58:48.445Z,2.60
2018-10-18T11:59:48.424Z,2.50
2018-10-18T12:00:48.372Z,2.80
2018-10-18T12:01:48.347Z,1.90
2018-10-18T12:02:48.391Z,2.80
2018-10-18T12:03:48.281Z,2.10
2018-10-18T12:04:48.256Z,2.30
2018-10-18T12:05:48.225Z,3.30
2018-10-18T12:06:48.199Z,2.50
2018-10-18T12:07:48.159Z,2.50
2018-10-18T12:08:48.127Z,2.00
2018-10-18T12:09:48.100Z,2.40
2018-10-18T12:10:48.270Z,2.20
2018-10-18T12:11:48.030Z,2.60
2018-10-18T12:12:48.001Z,2.00
2018-10-18T12:13:47.964Z,2.10
2018-10-18T12:14:47.959Z,2.10
2018-10-18T12:15:47.943Z,2.10
2018-10-18T12:16:47.878Z,2.40
2018-10-18T12:17:47.861Z,2.10
2018-10-18T12:18:47.819Z,1.80
2018-10-18T12:19:47.788Z,2.10
2018-10-18T12:20:47.773Z,2.00
2018-10-18T12:21:47.725Z,2.00
2018-10-18T12:22:47.689Z,1.90
2018-10-18T12:23:47.672Z,2.00
2018-10-18T12:24:47.628Z,2.10
2018-10-18T12:25:47.601Z,2.20
2018-10-18T12:26:47.603Z,1.90
2018-10-18T12:27:47.533Z,2.00
2018-10-18T12:28:47.511Z,2.30
2018-10-18T12:29:47.480Z,2.20
2018-10-18T12:30:47.458Z,1.80
2018-10-18T12:31:47.415Z,1.90
2018-10-18T12:32:47.484Z,2.10
2018-10-18T12:33:47.359Z,1.80
2018-10-18T12:34:47.330Z,2.20
2018-10-18T12:35:47.307Z,2.10
2018-10-18T12:36:47.278Z,1.90
2018-10-18T12:37:47.238Z,2.10
2018-10-18T12:38:47.214Z,2.00
2018-10-18T12:39:47.246Z,1.80
2018-10-18T12:40:47.198Z,2.20
2018-10-18T12:41:47.150Z,2.50
2018-10-18T12:42:47.091Z,2.80
2018-10-18T12:43:47.210Z,2.90
2018-10-18T12:44:47.028Z,2.50
2018-10-18T12:45:46.990Z,2.30
2018-10-18T12:46:46.959Z,2.50
2018-10-18T12:47:46.944Z,2.50
2018-10-18T12:48:47.008Z,2.40
2018-10-18T12:49:47.078Z,2.80
2018-10-18T12:53:25.825Z,1.90
2018-10-18T12:53:33.380Z,1.50
2018-10-18T12:54:33.455Z,2.90
2018-10-18T12:55:33.395Z,2.50
2018-10-18T12:56:33.291Z,2.40
2018-10-18T12:57:33.268Z,2.60
2018-10-18T12:58:33.241Z,2.80
2018-10-18T12:59:33.204Z,2.50
2018-10-18T13:00:33.186Z,2.10
2018-10-18T13:01:33.303Z,2.30
2018-10-18T13:02:33.162Z,2.40
2018-10-18T13:03:34.068Z,2.80
2018-10-18T13:04:33.062Z,2.30
2018-10-18T13:05:33.018Z,2.30
2018-10-18T13:06:33.009Z,2.30
2018-10-18T13:07:32.971Z,2.30
2018-10-18T13:08:32.930Z,2.30
2018-10-18T13:09:32.921Z,2.70
2018-10-18T13:10:32.900Z,2.80
2018-10-18T13:11:32.866Z,2.40
2018-10-18T13:12:32.937Z,3.00
2018-10-18T13:13:32.786Z,2.60
2018-10-18T13:14:32.753Z,2.40
2018-10-18T13:15:32.721Z,2.30
2018-10-18T13:16:32.698Z,2.60
2018-10-18T13:17:32.851Z,2.10
2018-10-18T13:18:32.635Z,2.30
2018-10-18T13:19:32.603Z,2.30
2018-10-18T13:20:32.686Z,2.30
2018-10-18T13:21:32.555Z,2.30
2018-10-18T13:22:32.523Z,2.30
2018-10-18T13:23:32.479Z,2.20
2018-10-18T13:24:32.452Z,2.60
2018-10-18T13:25:32.441Z,2.30
2018-10-18T13:26:32.395Z,2.30
2018-10-18T13:27:32.372Z,2.40
2018-10-18T13:28:32.327Z,2.00
2018-10-18T13:29:32.331Z,2.30
2018-10-18T13:30:32.272Z,2.50
2018-10-18T13:31:32.236Z,2.40
2018-10-18T13:32:32.213Z,2.40
2018-10-18T13:33:32.184Z,2.30
2018-10-18T13:34:32.294Z,2.40
2018-10-18T13:35:32.136Z,2.30
2018-10-18T13:36:32.089Z,2.70
2018-10-18T13:37:32.070Z,2.20
2018-10-18T13:38:32.030Z,2.60
2018-10-18T13:39:31.995Z,2.30
2018-10-18T13:40:32.031Z,2.10
2018-10-18T13:41:31.943Z,2.50
2018-10-18T13:42:31.913Z,2.40
2018-10-18T13:43:31.898Z,2.10
2018-10-18T13:44:31.854Z,2.30